sensor_id;sensor_type;location;lat;lon;timestamp;P1;durP1;ratioP1;P2;durP2;ratioP2
45812;SDS011;31519;45.408;10.962;2023-02-28T00:01:32;8.20;;;4.05;;
45812;SDS011;31519;45.408;10.962;2023-02-28T00:04:01;8.50;;;4.30;;
45812;SDS011;31519;45.408;10.962;2023-02-28T00:06:30;5.18;;;3.35;;
45812;SDS011;31519;45.408;10.962;2023-02-28T00:31:49;7.15;;;3.50;;
45812;SDS011;31519;45.408;10.962;2023-02-28T00:34:17;8.73;;;4.28;;
45812;SDS011;31519;45.408;10.962;2023-02-28T00:36:46;10.48;;;5.30;;
45812;SDS011;31519;45.408;10.962;2023-02-28T00:39:17;12.27;;;4.32;;
45812;SDS011;31519;45.408;10.962;2023-02-28T00:41:46;5.40;;;3.70;;
45812;SDS011;31519;45.408;10.962;2023-02-28T00:44:13;10.55;;;3.50;;
45812;SDS011;31519;45.408;10.962;2023-02-28T00:46:42;7.90;;;3.58;;
45812;SDS011;31519;45.408;10.962;2023-02-28T00:49:09;6.30;;;3.20;;
45812;SDS011;31519;45.408;10.962;2023-02-28T00:51:38;6.05;;;3.85;;
45812;SDS011;31519;45.408;10.962;2023-02-28T00:54:05;6.75;;;3.65;;
45812;SDS011;31519;45.408;10.962;2023-02-28T00:56:34;7.93;;;3.30;;
45812;SDS011;31519;45.408;10.962;2023-02-28T00:59:01;4.50;;;3.28;;
45812;SDS011;31519;45.408;10.962;2023-02-28T01:01:30;7.10;;;3.85;;
45812;SDS011;31519;45.408;10.962;2023-02-28T01:03:58;7.43;;;3.55;;
45812;SDS011;31519;45.408;10.962;2023-02-28T01:06:26;10.63;;;4.22;;
45812;SDS011;31519;45.408;10.962;2023-02-28T01:08:54;7.05;;;3.65;;
45812;SDS011;31519;45.408;10.962;2023-02-28T01:11:22;6.00;;;3.47;;
45812;SDS011;31519;45.408;10.962;2023-02-28T01:13:52;5.85;;;3.97;;
45812;SDS011;31519;45.408;10.962;2023-02-28T01:16:20;8.80;;;4.03;;
45812;SDS011;31519;45.408;10.962;2023-02-28T01:18:48;6.07;;;3.70;;
45812;SDS011;31519;45.408;10.962;2023-02-28T01:21:18;9.00;;;4.47;;
45812;SDS011;31519;45.408;10.962;2023-02-28T01:23:47;8.57;;;4.22;;
45812;SDS011;31519;45.408;10.962;2023-02-28T01:26:20;5.93;;;3.47;;
45812;SDS011;31519;45.408;10.962;2023-02-28T01:28:49;7.90;;;4.45;;
45812;SDS011;31519;45.408;10.962;2023-02-28T01:31:20;5.88;;;3.92;;
45812;SDS011;31519;45.408;10.962;2023-02-28T01:33:49;6.15;;;3.25;;
45812;SDS011;31519;45.408;10.962;2023-02-28T01:36:18;6.10;;;3.80;;
45812;SDS011;31519;45.408;10.962;2023-02-28T01:38:48;8.23;;;4.45;;
45812;SDS011;31519;45.408;10.962;2023-02-28T01:43:55;6.13;;;3.83;;
45812;SDS011;31519;45.408;10.962;2023-02-28T01:46:35;8.63;;;3.85;;
45812;SDS011;31519;45.408;10.962;2023-02-28T01:49:11;6.70;;;3.70;;
45812;SDS011;31519;45.408;10.962;2023-02-28T01:51:44;7.20;;;3.80;;
45812;SDS011;31519;45.408;10.962;2023-02-28T01:54:20;8.02;;;3.50;;
45812;SDS011;31519;45.408;10.962;2023-02-28T01:57:01;8.13;;;4.03;;
45812;SDS011;31519;45.408;10.962;2023-02-28T01:59:35;6.63;;;3.90;;
45812;SDS011;31519;45.408;10.962;2023-02-28T02:02:13;4.45;;;3.28;;
45812;SDS011;31519;45.408;10.962;2023-02-28T02:04:46;5.97;;;3.45;;
45812;SDS011;31519;45.408;10.962;2023-02-28T02:07:23;6.78;;;3.65;;
45812;SDS011;31519;45.408;10.962;2023-02-28T02:09:59;7.68;;;4.35;;
45812;SDS011;31519;45.408;10.962;2023-02-28T02:16:23;10.45;;;4.13;;
45812;SDS011;31519;45.408;10.962;2023-02-28T02:21:41;5.78;;;3.53;;
45812;SDS011;31519;45.408;10.962;2023-02-28T02:35:43;10.55;;;5.00;;
45812;SDS011;31519;45.408;10.962;2023-02-28T02:41:10;9.23;;;4.57;;
45812;SDS011;31519;45.408;10.962;2023-02-28T02:43:44;9.30;;;4.10;;
45812;SDS011;31519;45.408;10.962;2023-02-28T02:46:37;9.38;;;4.00;;
45812;SDS011;31519;45.408;10.962;2023-02-28T02:49:08;6.18;;;3.80;;
45812;SDS011;31519;45.408;10.962;2023-02-28T02:51:40;8.38;;;4.32;;
45812;SDS011;31519;45.408;10.962;2023-02-28T02:54:12;7.40;;;4.30;;
45812;SDS011;31519;45.408;10.962;2023-02-28T02:56:46;8.18;;;4.30;;
45812;SDS011;31519;45.408;10.962;2023-02-28T02:59:16;7.65;;;3.80;;
45812;SDS011;31519;45.408;10.962;2023-02-28T03:01:53;9.38;;;4.65;;
45812;SDS011;31519;45.408;10.962;2023-02-28T03:04:26;6.88;;;4.38;;
45812;SDS011;31519;45.408;10.962;2023-02-28T03:09:28;8.57;;;4.15;;
45812;SDS011;31519;45.408;10.962;2023-02-28T03:11:56;7.70;;;3.35;;
45812;SDS011;31519;45.408;10.962;2023-02-28T03:20:06;5.97;;;3.25;;
45812;SDS011;31519;45.408;10.962;2023-02-28T03:25:37;4.38;;;3.60;;
45812;SDS011;31519;45.408;10.962;2023-02-28T03:34:14;6.00;;;3.63;;
45812;SDS011;31519;45.408;10.962;2023-02-28T03:37:05;4.93;;;3.38;;
45812;SDS011;31519;45.408;10.962;2023-02-28T03:39:39;8.27;;;3.40;;
45812;SDS011;31519;45.408;10.962;2023-02-28T03:42:17;6.18;;;3.42;;
45812;SDS011;31519;45.408;10.962;2023-02-28T03:45:00;6.95;;;3.63;;
45812;SDS011;31519;45.408;10.962;2023-02-28T03:47:40;7.28;;;3.53;;
45812;SDS011;31519;45.408;10.962;2023-02-28T03:52:50;6.25;;;3.40;;
45812;SDS011;31519;45.408;10.962;2023-02-28T03:55:30;7.47;;;3.72;;
45812;SDS011;31519;45.408;10.962;2023-02-28T03:58:24;5.13;;;3.63;;
45812;SDS011;31519;45.408;10.962;2023-02-28T04:01:07;5.40;;;3.50;;
45812;SDS011;31519;45.408;10.962;2023-02-28T04:03:38;7.88;;;4.20;;
45812;SDS011;31519;45.408;10.962;2023-02-28T04:06:08;7.63;;;4.20;;
45812;SDS011;31519;45.408;10.962;2023-02-28T04:08:43;7.60;;;3.90;;
45812;SDS011;31519;45.408;10.962;2023-02-28T04:11:22;5.82;;;3.67;;
45812;SDS011;31519;45.408;10.962;2023-02-28T04:13:53;8.32;;;3.65;;
45812;SDS011;31519;45.408;10.962;2023-02-28T04:16:21;7.82;;;3.70;;
45812;SDS011;31519;45.408;10.962;2023-02-28T04:19:05;6.43;;;3.58;;
45812;SDS011;31519;45.408;10.962;2023-02-28T04:21:35;6.85;;;4.28;;
45812;SDS011;31519;45.408;10.962;2023-02-28T04:24:16;10.18;;;3.45;;
45812;SDS011;31519;45.408;10.962;2023-02-28T04:26:51;6.93;;;3.78;;
45812;SDS011;31519;45.408;10.962;2023-02-28T04:29:28;5.93;;;3.75;;
45812;SDS011;31519;45.408;10.962;2023-02-28T04:31:58;14.38;;;3.85;;
45812;SDS011;31519;45.408;10.962;2023-02-28T04:34:28;9.68;;;4.18;;
45812;SDS011;31519;45.408;10.962;2023-02-28T04:36:57;11.95;;;4.00;;
45812;SDS011;31519;45.408;10.962;2023-02-28T04:39:43;6.75;;;3.65;;
45812;SDS011;31519;45.408;10.962;2023-02-28T04:42:12;12.70;;;4.10;;
45812;SDS011;31519;45.408;10.962;2023-02-28T04:44:40;5.68;;;3.55;;
45812;SDS011;31519;45.408;10.962;2023-02-28T04:47:08;6.88;;;3.63;;
45812;SDS011;31519;45.408;10.962;2023-02-28T04:49:37;8.52;;;4.47;;
45812;SDS011;31519;45.408;10.962;2023-02-28T04:52:05;8.85;;;4.40;;
45812;SDS011;31519;45.408;10.962;2023-02-28T04:54:34;5.47;;;3.72;;
45812;SDS011;31519;45.408;10.962;2023-02-28T04:57:03;13.68;;;4.93;;
45812;SDS011;31519;45.408;10.962;2023-02-28T04:59:31;7.30;;;4.10;;
45812;SDS011;31519;45.408;10.962;2023-02-28T05:02:00;6.13;;;4.05;;
45812;SDS011;31519;45.408;10.962;2023-02-28T05:07:02;7.22;;;3.53;;
45812;SDS011;31519;45.408;10.962;2023-02-28T05:09:30;5.97;;;3.90;;
45812;SDS011;31519;45.408;10.962;2023-02-28T05:12:00;10.25;;;4.38;;
45812;SDS011;31519;45.408;10.962;2023-02-28T05:14:28;5.78;;;3.80;;
45812;SDS011;31519;45.408;10.962;2023-02-28T05:16:56;9.05;;;4.22;;
45812;SDS011;31519;45.408;10.962;2023-02-28T05:19:24;8.68;;;4.00;;
45812;SDS011;31519;45.408;10.962;2023-02-28T05:21:53;8.20;;;4.35;;
45812;SDS011;31519;45.408;10.962;2023-02-28T05:24:22;10.25;;;4.22;;
45812;SDS011;31519;45.408;10.962;2023-02-28T05:26:51;10.90;;;4.97;;
45812;SDS011;31519;45.408;10.962;2023-02-28T05:29:21;7.82;;;4.15;;
45812;SDS011;31519;45.408;10.962;2023-02-28T05:31:49;16.83;;;4.20;;
45812;SDS011;31519;45.408;10.962;2023-02-28T05:34:17;6.93;;;4.18;;
45812;SDS011;31519;45.408;10.962;2023-02-28T05:36:45;8.18;;;3.90;;
45812;SDS011;31519;45.408;10.962;2023-02-28T05:39:13;10.85;;;4.50;;
45812;SDS011;31519;45.408;10.962;2023-02-28T05:41:42;8.18;;;3.85;;
45812;SDS011;31519;45.408;10.962;2023-02-28T05:44:11;7.18;;;3.88;;
45812;SDS011;31519;45.408;10.962;2023-02-28T05:46:40;10.02;;;4.95;;
45812;SDS011;31519;45.408;10.962;2023-02-28T05:49:08;7.97;;;4.00;;
45812;SDS011;31519;45.408;10.962;2023-02-28T05:51:36;7.72;;;3.83;;
45812;SDS011;31519;45.408;10.962;2023-02-28T05:54:07;8.23;;;4.60;;
45812;SDS011;31519;45.408;10.962;2023-02-28T05:56:35;8.20;;;4.55;;
45812;SDS011;31519;45.408;10.962;2023-02-28T05:59:06;8.45;;;4.65;;
45812;SDS011;31519;45.408;10.962;2023-02-28T06:04:16;12.85;;;4.50;;
45812;SDS011;31519;45.408;10.962;2023-02-28T06:06:58;7.18;;;4.45;;
45812;SDS011;31519;45.408;10.962;2023-02-28T06:09:26;6.90;;;4.57;;
45812;SDS011;31519;45.408;10.962;2023-02-28T06:11:56;8.50;;;4.88;;
45812;SDS011;31519;45.408;10.962;2023-02-28T06:14:31;8.82;;;4.10;;
45812;SDS011;31519;45.408;10.962;2023-02-28T06:17:01;9.30;;;4.60;;
45812;SDS011;31519;45.408;10.962;2023-02-28T06:19:31;8.10;;;4.10;;
45812;SDS011;31519;45.408;10.962;2023-02-28T06:21:59;8.63;;;4.55;;
45812;SDS011;31519;45.408;10.962;2023-02-28T06:24:27;10.00;;;4.68;;
45812;SDS011;31519;45.408;10.962;2023-02-28T06:26:55;6.82;;;4.00;;
45812;SDS011;31519;45.408;10.962;2023-02-28T06:29:23;7.15;;;4.32;;
45812;SDS011;31519;45.408;10.962;2023-02-28T06:31:51;7.55;;;4.35;;
45812;SDS011;31519;45.408;10.962;2023-02-28T06:34:19;8.10;;;4.25;;
45812;SDS011;31519;45.408;10.962;2023-02-28T06:36:48;11.00;;;5.28;;
45812;SDS011;31519;45.408;10.962;2023-02-28T06:39:18;9.35;;;5.10;;
45812;SDS011;31519;45.408;10.962;2023-02-28T06:41:47;8.40;;;4.60;;
45812;SDS011;31519;45.408;10.962;2023-02-28T06:44:22;9.63;;;4.70;;
45812;SDS011;31519;45.408;10.962;2023-02-28T06:46:51;11.23;;;5.65;;
45812;SDS011;31519;45.408;10.962;2023-02-28T06:49:19;10.18;;;5.15;;
45812;SDS011;31519;45.408;10.962;2023-02-28T06:51:47;12.57;;;4.97;;
45812;SDS011;31519;45.408;10.962;2023-02-28T06:54:16;8.80;;;4.80;;
45812;SDS011;31519;45.408;10.962;2023-02-28T06:56:44;10.50;;;4.78;;
45812;SDS011;31519;45.408;10.962;2023-02-28T06:59:12;10.73;;;5.30;;
45812;SDS011;31519;45.408;10.962;2023-02-28T07:01:40;10.45;;;5.63;;
45812;SDS011;31519;45.408;10.962;2023-02-28T07:04:08;10.90;;;5.40;;
45812;SDS011;31519;45.408;10.962;2023-02-28T07:06:37;11.40;;;4.40;;
45812;SDS011;31519;45.408;10.962;2023-02-28T07:09:05;10.40;;;5.18;;
45812;SDS011;31519;45.408;10.962;2023-02-28T07:11:34;9.23;;;4.53;;
45812;SDS011;31519;45.408;10.962;2023-02-28T07:14:02;5.63;;;4.32;;
45812;SDS011;31519;45.408;10.962;2023-02-28T07:16:30;9.05;;;5.20;;
45812;SDS011;31519;45.408;10.962;2023-02-28T07:18:58;8.93;;;5.00;;
45812;SDS011;31519;45.408;10.962;2023-02-28T07:21:27;7.85;;;5.25;;
45812;SDS011;31519;45.408;10.962;2023-02-28T07:23:55;8.55;;;4.85;;
45812;SDS011;31519;45.408;10.962;2023-02-28T07:26:24;14.35;;;4.55;;
45812;SDS011;31519;45.408;10.962;2023-02-28T07:28:52;8.65;;;5.15;;
45812;SDS011;31519;45.408;10.962;2023-02-28T07:31:20;8.18;;;4.65;;
45812;SDS011;31519;45.408;10.962;2023-02-28T07:33:48;14.73;;;4.78;;
45812;SDS011;31519;45.408;10.962;2023-02-28T07:36:17;10.48;;;4.82;;
45812;SDS011;31519;45.408;10.962;2023-02-28T07:38:48;12.77;;;4.75;;
45812;SDS011;31519;45.408;10.962;2023-02-28T07:41:18;8.00;;;4.55;;
45812;SDS011;31519;45.408;10.962;2023-02-28T07:43:48;10.50;;;4.43;;
45812;SDS011;31519;45.408;10.962;2023-02-28T07:46:16;12.38;;;5.28;;
45812;SDS011;31519;45.408;10.962;2023-02-28T07:48:45;7.35;;;4.35;;
45812;SDS011;31519;45.408;10.962;2023-02-28T07:51:13;9.02;;;4.68;;
45812;SDS011;31519;45.408;10.962;2023-02-28T07:53:42;9.93;;;4.38;;
45812;SDS011;31519;45.408;10.962;2023-02-28T07:56:10;8.65;;;5.25;;
45812;SDS011;31519;45.408;10.962;2023-02-28T07:58:38;9.07;;;4.43;;
45812;SDS011;31519;45.408;10.962;2023-02-28T08:01:06;13.90;;;4.57;;
45812;SDS011;31519;45.408;10.962;2023-02-28T08:03:36;8.48;;;5.38;;
45812;SDS011;31519;45.408;10.962;2023-02-28T08:06:06;10.50;;;5.63;;
45812;SDS011;31519;45.408;10.962;2023-02-28T08:08:35;8.88;;;4.80;;
45812;SDS011;31519;45.408;10.962;2023-02-28T08:11:03;10.98;;;5.15;;
45812;SDS011;31519;45.408;10.962;2023-02-28T08:13:31;7.55;;;4.95;;
45812;SDS011;31519;45.408;10.962;2023-02-28T08:16:00;10.32;;;4.55;;
45812;SDS011;31519;45.408;10.962;2023-02-28T08:18:29;27.35;;;4.60;;
45812;SDS011;31519;45.408;10.962;2023-02-28T08:20:58;8.13;;;4.05;;
45812;SDS011;31519;45.408;10.962;2023-02-28T08:23:26;9.50;;;4.38;;
45812;SDS011;31519;45.408;10.962;2023-02-28T08:25:55;6.88;;;4.25;;
45812;SDS011;31519;45.408;10.962;2023-02-28T08:28:23;11.63;;;4.63;;
45812;SDS011;31519;45.408;10.962;2023-02-28T08:30:54;12.35;;;5.35;;
45812;SDS011;31519;45.408;10.962;2023-02-28T08:33:23;12.57;;;4.70;;
45812;SDS011;31519;45.408;10.962;2023-02-28T08:35:55;12.32;;;4.43;;
45812;SDS011;31519;45.408;10.962;2023-02-28T08:38:24;14.23;;;5.13;;
45812;SDS011;31519;45.408;10.962;2023-02-28T08:40:59;14.73;;;4.95;;
45812;SDS011;31519;45.408;10.962;2023-02-28T08:43:28;12.15;;;5.05;;
45812;SDS011;31519;45.408;10.962;2023-02-28T08:45:57;11.32;;;4.88;;
45812;SDS011;31519;45.408;10.962;2023-02-28T08:48:25;9.90;;;5.07;;
45812;SDS011;31519;45.408;10.962;2023-02-28T08:50:56;13.07;;;4.43;;
45812;SDS011;31519;45.408;10.962;2023-02-28T08:53:34;7.80;;;4.97;;
45812;SDS011;31519;45.408;10.962;2023-02-28T08:56:07;10.23;;;4.80;;
45812;SDS011;31519;45.408;10.962;2023-02-28T08:58:39;8.40;;;4.65;;
45812;SDS011;31519;45.408;10.962;2023-02-28T09:01:11;15.73;;;5.28;;
45812;SDS011;31519;45.408;10.962;2023-02-28T09:03:41;13.15;;;4.90;;
45812;SDS011;31519;45.408;10.962;2023-02-28T09:06:10;9.68;;;4.78;;
45812;SDS011;31519;45.408;10.962;2023-02-28T09:08:38;10.80;;;4.53;;
45812;SDS011;31519;45.408;10.962;2023-02-28T09:11:07;12.40;;;4.65;;
45812;SDS011;31519;45.408;10.962;2023-02-28T09:13:37;9.02;;;4.85;;
45812;SDS011;31519;45.408;10.962;2023-02-28T09:16:07;9.10;;;4.50;;
45812;SDS011;31519;45.408;10.962;2023-02-28T09:18:37;18.92;;;5.50;;
45812;SDS011;31519;45.408;10.962;2023-02-28T09:21:07;8.85;;;5.03;;
45812;SDS011;31519;45.408;10.962;2023-02-28T09:23:42;9.30;;;4.57;;
45812;SDS011;31519;45.408;10.962;2023-02-28T09:26:13;10.15;;;4.70;;
45812;SDS011;31519;45.408;10.962;2023-02-28T09:28:45;7.20;;;4.60;;
45812;SDS011;31519;45.408;10.962;2023-02-28T09:31:15;7.38;;;4.40;;
45812;SDS011;31519;45.408;10.962;2023-02-28T09:36:17;9.88;;;4.55;;
45812;SDS011;31519;45.408;10.962;2023-02-28T09:38:46;16.70;;;4.47;;
45812;SDS011;31519;45.408;10.962;2023-02-28T09:41:17;10.98;;;5.47;;
45812;SDS011;31519;45.408;10.962;2023-02-28T09:43:55;7.10;;;4.35;;
45812;SDS011;31519;45.408;10.962;2023-02-28T09:46:37;9.48;;;4.68;;
45812;SDS011;31519;45.408;10.962;2023-02-28T09:49:18;8.05;;;4.43;;
45812;SDS011;31519;45.408;10.962;2023-02-28T09:51:58;8.40;;;4.55;;
45812;SDS011;31519;45.408;10.962;2023-02-28T09:54:30;8.38;;;4.43;;
45812;SDS011;31519;45.408;10.962;2023-02-28T10:05:49;15.35;;;4.68;;
45812;SDS011;31519;45.408;10.962;2023-02-28T10:11:37;9.23;;;4.13;;
45812;SDS011;31519;45.408;10.962;2023-02-28T10:14:17;9.52;;;4.47;;
45812;SDS011;31519;45.408;10.962;2023-02-28T10:16:53;18.30;;;4.22;;
45812;SDS011;31519;45.408;10.962;2023-02-28T10:22:17;7.85;;;4.82;;
45812;SDS011;31519;45.408;10.962;2023-02-28T10:24:51;9.43;;;4.13;;
45812;SDS011;31519;45.408;10.962;2023-02-28T10:27:24;11.63;;;4.72;;
45812;SDS011;31519;45.408;10.962;2023-02-28T10:29:58;11.63;;;6.20;;
45812;SDS011;31519;45.408;10.962;2023-02-28T10:32:30;14.88;;;6.00;;
45812;SDS011;31519;45.408;10.962;2023-02-28T10:37:39;8.77;;;4.93;;
45812;SDS011;31519;45.408;10.962;2023-02-28T10:40:31;11.75;;;5.68;;
45812;SDS011;31519;45.408;10.962;2023-02-28T10:43:04;8.45;;;4.35;;
45812;SDS011;31519;45.408;10.962;2023-02-28T10:45:55;9.30;;;4.70;;
45812;SDS011;31519;45.408;10.962;2023-02-28T10:48:33;10.05;;;4.90;;
45812;SDS011;31519;45.408;10.962;2023-02-28T10:51:02;10.52;;;5.18;;
45812;SDS011;31519;45.408;10.962;2023-02-28T10:53:33;13.57;;;5.18;;
45812;SDS011;31519;45.408;10.962;2023-02-28T10:56:27;8.02;;;4.38;;
45812;SDS011;31519;45.408;10.962;2023-02-28T11:01:58;10.50;;;4.65;;
45812;SDS011;31519;45.408;10.962;2023-02-28T11:12:20;11.77;;;5.78;;
45812;SDS011;31519;45.408;10.962;2023-02-28T11:15:23;8.73;;;4.93;;
45812;SDS011;31519;45.408;10.962;2023-02-28T11:17:58;8.15;;;5.57;;
45812;SDS011;31519;45.408;10.962;2023-02-28T11:20:28;12.45;;;5.65;;
45812;SDS011;31519;45.408;10.962;2023-02-28T11:22:58;7.07;;;4.80;;
45812;SDS011;31519;45.408;10.962;2023-02-28T11:25:37;9.68;;;4.60;;
45812;SDS011;31519;45.408;10.962;2023-02-28T11:28:22;7.75;;;4.55;;
45812;SDS011;31519;45.408;10.962;2023-02-28T11:30:59;7.65;;;4.97;;
45812;SDS011;31519;45.408;10.962;2023-02-28T11:33:30;9.65;;;5.38;;
45812;SDS011;31519;45.408;10.962;2023-02-28T11:36:01;13.77;;;5.35;;
45812;SDS011;31519;45.408;10.962;2023-02-28T11:43:45;8.80;;;5.00;;
45812;SDS011;31519;45.408;10.962;2023-02-28T11:46:24;9.63;;;5.15;;
45812;SDS011;31519;45.408;10.962;2023-02-28T11:51:38;8.43;;;5.10;;
45812;SDS011;31519;45.408;10.962;2023-02-28T11:57:00;9.43;;;5.63;;
45812;SDS011;31519;45.408;10.962;2023-02-28T12:02:26;7.43;;;5.15;;
45812;SDS011;31519;45.408;10.962;2023-02-28T12:05:33;6.68;;;4.65;;
45812;SDS011;31519;45.408;10.962;2023-02-28T12:11:38;8.32;;;4.97;;
45812;SDS011;31519;45.408;10.962;2023-02-28T12:17:00;7.78;;;5.00;;
45812;SDS011;31519;45.408;10.962;2023-02-28T12:22:43;10.65;;;4.75;;
45812;SDS011;31519;45.408;10.962;2023-02-28T12:28:21;17.58;;;5.72;;
45812;SDS011;31519;45.408;10.962;2023-02-28T12:34:07;12.07;;;6.45;;
45812;SDS011;31519;45.408;10.962;2023-02-28T12:36:41;11.18;;;6.20;;
45812;SDS011;31519;45.408;10.962;2023-02-28T12:39:15;12.90;;;5.50;;
45812;SDS011;31519;45.408;10.962;2023-02-28T12:42:03;8.07;;;5.55;;
45812;SDS011;31519;45.408;10.962;2023-02-28T12:44:46;12.20;;;5.55;;
45812;SDS011;31519;45.408;10.962;2023-02-28T12:47:20;22.80;;;6.03;;
45812;SDS011;31519;45.408;10.962;2023-02-28T12:49:49;7.47;;;5.53;;
45812;SDS011;31519;45.408;10.962;2023-02-28T12:52:30;11.75;;;6.15;;
45812;SDS011;31519;45.408;10.962;2023-02-28T12:55:33;14.57;;;5.97;;
45812;SDS011;31519;45.408;10.962;2023-02-28T12:58:23;9.48;;;6.35;;
45812;SDS011;31519;45.408;10.962;2023-02-28T13:03:41;10.70;;;6.03;;
45812;SDS011;31519;45.408;10.962;2023-02-28T13:09:19;9.63;;;6.22;;
45812;SDS011;31519;45.408;10.962;2023-02-28T13:11:49;9.82;;;5.45;;
45812;SDS011;31519;45.408;10.962;2023-02-28T13:14:22;9.68;;;6.55;;
45812;SDS011;31519;45.408;10.962;2023-02-28T13:22:36;10.48;;;6.20;;
45812;SDS011;31519;45.408;10.962;2023-02-28T13:27:50;10.63;;;6.63;;
45812;SDS011;31519;45.408;10.962;2023-02-28T13:33:25;11.00;;;6.45;;
45812;SDS011;31519;45.408;10.962;2023-02-28T13:38:42;11.45;;;6.75;;
45812;SDS011;31519;45.408;10.962;2023-02-28T13:44:19;10.57;;;6.40;;
45812;SDS011;31519;45.408;10.962;2023-02-28T13:52:03;10.27;;;6.88;;
45812;SDS011;31519;45.408;10.962;2023-02-28T14:06:45;9.55;;;5.70;;
45812;SDS011;31519;45.408;10.962;2023-02-28T14:08:59;12.55;;;7.00;;
45812;SDS011;31519;45.408;10.962;2023-02-28T14:11:43;14.60;;;5.93;;
45812;SDS011;31519;45.408;10.962;2023-02-28T14:17:05;12.50;;;7.07;;
45812;SDS011;31519;45.408;10.962;2023-02-28T14:19:37;10.55;;;6.47;;
45812;SDS011;31519;45.408;10.962;2023-02-28T14:30:17;11.23;;;6.13;;
45812;SDS011;31519;45.408;10.962;2023-02-28T14:39:14;14.02;;;6.97;;
45812;SDS011;31519;45.408;10.962;2023-02-28T14:41:44;11.55;;;6.88;;
45812;SDS011;31519;45.408;10.962;2023-02-28T14:46:52;10.32;;;6.47;;
45812;SDS011;31519;45.408;10.962;2023-02-28T14:49:29;10.95;;;6.82;;
45812;SDS011;31519;45.408;10.962;2023-02-28T14:54:34;12.45;;;6.65;;
45812;SDS011;31519;45.408;10.962;2023-02-28T14:57:04;12.10;;;6.32;;
45812;SDS011;31519;45.408;10.962;2023-02-28T14:59:34;10.50;;;6.03;;
45812;SDS011;31519;45.408;10.962;2023-02-28T15:02:16;9.55;;;6.10;;
45812;SDS011;31519;45.408;10.962;2023-02-28T15:04:52;20.15;;;6.78;;
45812;SDS011;31519;45.408;10.962;2023-02-28T15:13:00;25.15;;;9.60;;
45812;SDS011;31519;45.408;10.962;2023-02-28T15:21:06;8.52;;;5.43;;
45812;SDS011;31519;45.408;10.962;2023-02-28T15:23:39;13.43;;;6.45;;
45812;SDS011;31519;45.408;10.962;2023-02-28T15:26:12;15.68;;;6.22;;
45812;SDS011;31519;45.408;10.962;2023-02-28T15:28:44;11.25;;;6.85;;
45812;SDS011;31519;45.408;10.962;2023-02-28T15:31:25;25.50;;;11.10;;
45812;SDS011;31519;45.408;10.962;2023-02-28T15:34:06;16.52;;;6.18;;
45812;SDS011;31519;45.408;10.962;2023-02-28T15:36:43;12.20;;;7.38;;
45812;SDS011;31519;45.408;10.962;2023-02-28T15:39:19;8.40;;;6.38;;
45812;SDS011;31519;45.408;10.962;2023-02-28T15:42:09;11.85;;;6.32;;
45812;SDS011;31519;45.408;10.962;2023-02-28T15:44:39;9.60;;;6.28;;
45812;SDS011;31519;45.408;10.962;2023-02-28T15:47:14;9.07;;;6.00;;
45812;SDS011;31519;45.408;10.962;2023-02-28T15:49:55;11.35;;;6.38;;
45812;SDS011;31519;45.408;10.962;2023-02-28T15:52:28;11.48;;;7.18;;
45812;SDS011;31519;45.408;10.962;2023-02-28T15:55:18;17.40;;;8.45;;
45812;SDS011;31519;45.408;10.962;2023-02-28T15:57:52;15.30;;;7.18;;
45812;SDS011;31519;45.408;10.962;2023-02-28T16:00:27;15.25;;;7.45;;
45812;SDS011;31519;45.408;10.962;2023-02-28T16:02:57;13.68;;;6.28;;
45812;SDS011;31519;45.408;10.962;2023-02-28T16:05:29;12.68;;;6.65;;
45812;SDS011;31519;45.408;10.962;2023-02-28T16:08:15;18.73;;;8.18;;
45812;SDS011;31519;45.408;10.962;2023-02-28T16:10:43;12.90;;;7.85;;
45812;SDS011;31519;45.408;10.962;2023-02-28T16:13:11;16.92;;;7.07;;
45812;SDS011;31519;45.408;10.962;2023-02-28T16:15:43;15.88;;;7.97;;
45812;SDS011;31519;45.408;10.962;2023-02-28T16:18:11;11.65;;;7.20;;
45812;SDS011;31519;45.408;10.962;2023-02-28T16:20:40;16.55;;;7.20;;
45812;SDS011;31519;45.408;10.962;2023-02-28T16:23:09;12.40;;;6.95;;
45812;SDS011;31519;45.408;10.962;2023-02-28T16:25:38;11.77;;;6.95;;
45812;SDS011;31519;45.408;10.962;2023-02-28T16:30:46;13.13;;;7.57;;
45812;SDS011;31519;45.408;10.962;2023-02-28T16:33:14;16.63;;;7.90;;
45812;SDS011;31519;45.408;10.962;2023-02-28T16:35:42;21.15;;;9.25;;
45812;SDS011;31519;45.408;10.962;2023-02-28T16:38:11;18.33;;;7.50;;
45812;SDS011;31519;45.408;10.962;2023-02-28T16:40:39;22.00;;;6.78;;
45812;SDS011;31519;45.408;10.962;2023-02-28T16:43:08;13.55;;;7.30;;
45812;SDS011;31519;45.408;10.962;2023-02-28T16:45:44;22.00;;;8.00;;
45812;SDS011;31519;45.408;10.962;2023-02-28T16:48:14;14.60;;;6.78;;
45812;SDS011;31519;45.408;10.962;2023-02-28T16:50:43;12.35;;;7.50;;
45812;SDS011;31519;45.408;10.962;2023-02-28T16:53:12;24.38;;;7.72;;
45812;SDS011;31519;45.408;10.962;2023-02-28T16:55:41;23.08;;;10.00;;
45812;SDS011;31519;45.408;10.962;2023-02-28T16:58:13;15.90;;;8.10;;
45812;SDS011;31519;45.408;10.962;2023-02-28T17:00:43;13.90;;;8.07;;
45812;SDS011;31519;45.408;10.962;2023-02-28T17:03:30;18.65;;;8.10;;
45812;SDS011;31519;45.408;10.962;2023-02-28T17:06:00;19.77;;;7.00;;
45812;SDS011;31519;45.408;10.962;2023-02-28T17:08:29;16.38;;;7.75;;
45812;SDS011;31519;45.408;10.962;2023-02-28T17:10:59;14.27;;;6.68;;
45812;SDS011;31519;45.408;10.962;2023-02-28T17:13:29;12.43;;;7.15;;
45812;SDS011;31519;45.408;10.962;2023-02-28T17:15:57;17.20;;;6.70;;
45812;SDS011;31519;45.408;10.962;2023-02-28T17:18:25;15.02;;;7.60;;
45812;SDS011;31519;45.408;10.962;2023-02-28T17:20:56;15.65;;;7.57;;
45812;SDS011;31519;45.408;10.962;2023-02-28T17:23:24;15.77;;;9.07;;
45812;SDS011;31519;45.408;10.962;2023-02-28T17:25:52;15.90;;;8.07;;
45812;SDS011;31519;45.408;10.962;2023-02-28T17:28:24;21.75;;;9.07;;
45812;SDS011;31519;45.408;10.962;2023-02-28T17:30:52;25.20;;;9.00;;
45812;SDS011;31519;45.408;10.962;2023-02-28T17:33:21;16.38;;;9.27;;
45812;SDS011;31519;45.408;10.962;2023-02-28T17:35:49;21.38;;;8.85;;
45812;SDS011;31519;45.408;10.962;2023-02-28T17:38:18;21.80;;;9.52;;
45812;SDS011;31519;45.408;10.962;2023-02-28T17:40:47;23.77;;;9.85;;
45812;SDS011;31519;45.408;10.962;2023-02-28T17:43:15;14.88;;;7.65;;
45812;SDS011;31519;45.408;10.962;2023-02-28T17:45:43;26.50;;;8.18;;
45812;SDS011;31519;45.408;10.962;2023-02-28T17:48:11;14.98;;;7.13;;
45812;SDS011;31519;45.408;10.962;2023-02-28T17:50:40;18.17;;;8.00;;
45812;SDS011;31519;45.408;10.962;2023-02-28T17:53:08;17.02;;;7.63;;
45812;SDS011;31519;45.408;10.962;2023-02-28T17:55:36;17.05;;;8.25;;
45812;SDS011;31519;45.408;10.962;2023-02-28T17:58:05;26.17;;;10.00;;
45812;SDS011;31519;45.408;10.962;2023-02-28T18:00:33;20.40;;;7.82;;
45812;SDS011;31519;45.408;10.962;2023-02-28T18:03:02;29.33;;;9.27;;
45812;SDS011;31519;45.408;10.962;2023-02-28T18:05:31;19.73;;;9.07;;
45812;SDS011;31519;45.408;10.962;2023-02-28T18:08:00;26.73;;;10.05;;
45812;SDS011;31519;45.408;10.962;2023-02-28T18:10:28;28.67;;;9.43;;
45812;SDS011;31519;45.408;10.962;2023-02-28T18:13:01;27.45;;;9.57;;
45812;SDS011;31519;45.408;10.962;2023-02-28T18:15:31;17.38;;;8.95;;
45812;SDS011;31519;45.408;10.962;2023-02-28T18:17:59;22.85;;;10.10;;
45812;SDS011;31519;45.408;10.962;2023-02-28T18:20:27;22.65;;;8.95;;
45812;SDS011;31519;45.408;10.962;2023-02-28T18:22:56;22.73;;;9.00;;
45812;SDS011;31519;45.408;10.962;2023-02-28T18:25:24;31.85;;;10.45;;